createdAt,value
2022-12-11T00:00:02.481Z,157.70
2022-12-11T00:01:02.463Z,169.50
2022-12-11T00:02:08.399Z,140.10
2022-12-11T00:03:14.177Z,144.80
2022-12-11T00:04:08.486Z,145.80
2022-12-11T00:05:14.211Z,148.60
2022-12-11T00:06:14.431Z,149.90
2022-12-11T00:07:14.259Z,148.60
2022-12-11T00:08:14.335Z,144.50
2022-12-11T00:09:14.218Z,138.40
2022-12-11T00:10:14.186Z,138.00
2022-12-11T00:11:14.130Z,158.90
2022-12-11T00:12:14.132Z,159.30
2022-12-11T00:13:14.076Z,141.80
2022-12-11T00:14:14.201Z,150.40
2022-12-11T00:15:14.044Z,139.00
2022-12-11T00:16:14.043Z,144.10
2022-12-11T00:17:13.930Z,141.00
2022-12-11T00:18:14.093Z,146.60
2022-12-11T00:19:13.860Z,140.00
2022-12-11T00:20:13.860Z,147.30
2022-12-11T00:21:13.804Z,155.90
2022-12-11T00:22:13.828Z,144.00
2022-12-11T00:25:08.149Z,151.10
2022-12-11T00:26:07.731Z,148.20
2022-12-11T00:27:07.694Z,140.20
2022-12-11T00:28:11.538Z,152.20
2022-12-11T00:29:16.521Z,164.40
2022-12-11T00:30:16.596Z,169.20
2022-12-11T00:31:16.655Z,163.80
2022-12-11T00:32:16.587Z,158.70
2022-12-11T00:33:16.500Z,149.40
2022-12-11T00:34:16.454Z,151.50
2022-12-11T00:35:16.566Z,147.20
2022-12-11T00:36:16.435Z,165.20
2022-12-11T00:37:16.455Z,146.30
2022-12-11T00:38:16.369Z,160.90
2022-12-11T00:39:16.310Z,150.60
2022-12-11T00:40:16.325Z,152.90
2022-12-11T00:41:16.267Z,145.70
2022-12-11T00:42:16.290Z,149.10
2022-12-11T00:43:16.228Z,170.20
2022-12-11T00:44:16.207Z,159.20
2022-12-11T00:45:16.163Z,159.50
2022-12-11T00:46:16.356Z,155.50
2022-12-11T00:47:16.095Z,155.20
2022-12-11T00:48:16.351Z,151.90
2022-12-11T00:49:16.030Z,153.20
2022-12-11T00:50:16.023Z,165.50
2022-12-11T00:51:15.970Z,158.10
2022-12-11T00:52:15.960Z,180.30
2022-12-11T00:53:15.952Z,177.60
2022-12-11T00:54:20.821Z,175.70
2022-12-11T00:55:24.800Z,174.30
2022-12-11T00:56:24.894Z,181.70
2022-12-11T00:57:24.810Z,171.50
2022-12-11T00:58:24.837Z,168.40
2022-12-11T00:59:25.099Z,178.90
2022-12-11T01:00:24.782Z,176.80
2022-12-11T01:01:24.788Z,159.20
2022-12-11T01:02:24.792Z,176.60
2022-12-11T01:03:24.696Z,182.80
2022-12-11T01:04:24.680Z,164.60
2022-12-11T01:05:24.677Z,175.90
2022-12-11T01:06:24.625Z,196.60
2022-12-11T01:07:24.744Z,186.70
2022-12-11T01:09:30.417Z,178.00
2022-12-11T01:10:30.867Z,182.50
2022-12-11T01:11:30.489Z,166.40
2022-12-11T01:12:30.482Z,176.90
2022-12-11T01:13:30.419Z,174.20
2022-12-11T01:14:30.435Z,187.30
2022-12-11T01:15:30.391Z,172.50
2022-12-11T01:16:35.481Z,182.70
2022-12-11T01:17:41.265Z,185.70
2022-12-11T01:18:41.325Z,173.30
2022-12-11T01:19:41.293Z,190.90
2022-12-11T01:20:41.316Z,175.60
2022-12-11T01:21:41.286Z,170.90
2022-12-11T01:22:41.265Z,160.00
2022-12-11T01:23:41.256Z,194.50
2022-12-11T01:25:47.054Z,222.00
2022-12-11T01:26:47.138Z,174.80
2022-12-11T01:27:47.127Z,178.10
2022-12-11T01:28:47.097Z,194.30
2022-12-11T01:29:47.053Z,172.60
2022-12-11T01:30:47.113Z,176.10
2022-12-11T01:31:46.991Z,212.80
2022-12-11T01:32:51.167Z,202.00
2022-12-11T01:33:55.857Z,205.50
2022-12-11T01:34:55.933Z,186.80
2022-12-11T01:35:55.896Z,176.60
2022-12-11T01:37:00.794Z,185.80
2022-12-11T01:38:06.131Z,202.60
2022-12-11T01:39:05.806Z,197.40
2022-12-11T01:40:05.762Z,194.30
2022-12-11T01:41:05.770Z,192.70
2022-12-11T01:42:05.722Z,175.00
2022-12-11T01:43:05.709Z,209.00
2022-12-11T01:44:05.727Z,180.80
2022-12-11T01:45:05.688Z,202.10
2022-12-11T01:46:05.691Z,196.60
2022-12-11T01:47:05.611Z,181.00
2022-12-11T01:48:05.562Z,200.70
2022-12-11T01:49:05.689Z,178.10
2022-12-11T01:50:05.632Z,197.40
2022-12-11T01:51:05.460Z,184.40
2022-12-11T01:52:05.413Z,185.60
2022-12-11T01:53:05.390Z,179.90
2022-12-11T01:54:05.350Z,165.80
2022-12-11T01:55:05.325Z,172.20
2022-12-11T01:56:05.295Z,162.00
2022-12-11T01:57:05.253Z,170.80
2022-12-11T01:58:05.215Z,157.70
2022-12-11T01:59:05.241Z,160.50
2022-12-11T02:00:05.194Z,186.30
2022-12-11T02:01:05.265Z,171.00
2022-12-11T02:02:05.150Z,158.90
2022-12-11T02:03:05.114Z,170.60
2022-12-11T02:04:05.059Z,148.20
2022-12-11T02:05:05.052Z,151.80
2022-12-11T02:06:04.999Z,161.10
2022-12-11T02:07:04.986Z,159.20
2022-12-11T02:08:05.066Z,176.00
2022-12-11T02:09:04.956Z,155.20
2022-12-11T02:10:04.901Z,156.60
2022-12-11T02:11:04.899Z,153.30
2022-12-11T02:12:04.857Z,163.90
2022-12-11T02:13:04.868Z,175.20
2022-12-11T02:14:04.796Z,153.80
2022-12-11T02:15:04.773Z,162.10
2022-12-11T02:16:04.763Z,143.10
2022-12-11T02:17:04.724Z,140.20
2022-12-11T02:18:04.670Z,157.50
2022-12-11T02:19:04.673Z,151.20
2022-12-11T02:20:04.637Z,148.40
2022-12-11T02:21:04.609Z,146.40
2022-12-11T02:22:04.868Z,143.00
2022-12-11T02:23:04.559Z,146.00
2022-12-11T02:24:04.496Z,153.10
2022-12-11T02:25:04.505Z,156.90
2022-12-11T02:26:04.618Z,144.20
2022-12-11T02:27:04.441Z,136.80
2022-12-11T02:28:04.387Z,144.30
2022-12-11T02:29:04.364Z,175.70
2022-12-11T02:30:04.316Z,146.20
2022-12-11T02:31:04.344Z,147.90
2022-12-11T02:32:04.258Z,135.00
2022-12-11T02:33:04.257Z,143.60
2022-12-11T02:34:04.190Z,137.50
2022-12-11T02:35:04.182Z,135.30
2022-12-11T02:36:04.140Z,123.60
2022-12-11T02:37:04.112Z,145.30
2022-12-11T02:38:04.320Z,137.60
2022-12-11T02:39:04.046Z,147.90
2022-12-11T02:40:04.012Z,151.20
2022-12-11T02:41:04.006Z,136.80
2022-12-11T02:42:03.975Z,138.00
2022-12-11T02:43:03.902Z,143.90
2022-12-11T02:44:03.915Z,152.20
2022-12-11T02:45:03.906Z,152.90
2022-12-11T02:46:03.846Z,135.10
2022-12-11T02:47:03.797Z,132.40
2022-12-11T02:48:03.747Z,144.60
2022-12-11T02:49:03.720Z,143.70
2022-12-11T02:50:03.823Z,145.80
2022-12-11T02:51:03.661Z,158.10
2022-12-11T02:52:03.602Z,161.60
2022-12-11T02:53:03.596Z,153.80
2022-12-11T02:54:03.543Z,155.50
2022-12-11T02:55:03.545Z,157.90
2022-12-11T02:56:03.502Z,151.10
2022-12-11T02:57:03.469Z,157.30
2022-12-11T02:58:03.423Z,169.20
2022-12-11T02:59:03.442Z,158.40
2022-12-11T03:00:03.375Z,146.50
2022-12-11T03:01:03.450Z,136.90
2022-12-11T03:02:03.377Z,163.60
2022-12-11T03:03:03.413Z,143.60
2022-12-11T03:04:03.273Z,182.90
2022-12-11T03:05:03.263Z,165.50
2022-12-11T03:06:03.243Z,164.90
2022-12-11T03:07:03.217Z,163.00
2022-12-11T03:08:03.282Z,160.30
2022-12-11T03:09:08.035Z,165.00
2022-12-11T03:10:08.105Z,174.50
2022-12-11T03:11:08.051Z,150.90
2022-12-11T03:12:08.086Z,156.00
2022-12-11T03:13:08.007Z,153.90
2022-12-11T03:14:07.962Z,158.00
2022-12-11T03:15:08.168Z,182.00
2022-12-11T03:16:07.982Z,156.50
2022-12-11T03:17:07.849Z,166.40
2022-12-11T03:18:07.841Z,178.90
2022-12-11T03:19:08.084Z,176.80
2022-12-11T03:20:07.777Z,157.90
2022-12-11T03:21:07.742Z,175.80
2022-12-11T03:22:12.642Z,189.40
2022-12-11T03:23:12.732Z,169.50
2022-12-11T03:24:12.780Z,169.70
2022-12-11T03:25:12.840Z,177.10
2022-12-11T03:26:12.713Z,183.80
2022-12-11T03:27:12.602Z,185.70
2022-12-11T03:28:12.546Z,177.40
2022-12-11T03:29:12.528Z,160.60
2022-12-11T03:30:12.519Z,163.50
2022-12-11T03:31:12.560Z,170.10
2022-12-11T03:32:12.455Z,165.40
2022-12-11T03:33:12.468Z,178.10
2022-12-11T03:34:12.397Z,170.70
2022-12-11T03:35:12.872Z,184.30
2022-12-11T03:36:12.371Z,166.70
2022-12-11T03:37:17.390Z,172.50
2022-12-11T03:38:22.241Z,163.40
2022-12-11T03:39:22.306Z,177.20
2022-12-11T03:40:22.237Z,166.60
2022-12-11T03:41:22.271Z,169.50
2022-12-11T03:42:22.201Z,150.70
2022-12-11T03:43:22.179Z,170.60
2022-12-11T03:44:22.160Z,165.10
2022-12-11T03:45:22.157Z,163.80
2022-12-11T03:46:22.200Z,183.50
2022-12-11T03:47:22.211Z,162.60
2022-12-11T03:48:22.027Z,180.50
2022-12-11T03:49:25.924Z,162.30
2022-12-11T03:50:31.879Z,175.10
2022-12-11T03:51:31.985Z,148.30
2022-12-11T03:52:32.222Z,178.80
2022-12-11T03:53:31.934Z,153.00
2022-12-11T03:54:31.927Z,185.30
2022-12-11T03:55:31.887Z,149.50
2022-12-11T03:56:31.844Z,154.30
2022-12-11T03:57:31.873Z,167.30
2022-12-11T03:58:31.807Z,152.70
2022-12-11T03:59:31.802Z,148.50
2022-12-11T04:00:31.744Z,152.90
2022-12-11T04:01:31.768Z,170.30
2022-12-11T04:02:31.694Z,186.50
2022-12-11T04:03:31.694Z,139.70
2022-12-11T04:04:31.806Z,156.20
2022-12-11T04:05:31.605Z,155.60
2022-12-11T04:06:31.564Z,151.00
2022-12-11T04:07:31.554Z,143.40
2022-12-11T04:08:31.650Z,143.00
2022-12-11T04:09:31.499Z,131.70
2022-12-11T04:10:33.288Z,142.50
2022-12-11T04:11:32.701Z,134.90
2022-12-11T04:12:31.394Z,130.60
2022-12-11T04:13:31.393Z,140.60
2022-12-11T04:14:31.340Z,144.00
2022-12-11T04:15:31.437Z,140.40
2022-12-11T04:16:31.594Z,144.60
2022-12-11T04:17:31.255Z,137.70
2022-12-11T04:18:31.243Z,153.00
2022-12-11T04:19:31.347Z,149.20
2022-12-11T04:20:31.161Z,143.30
2022-12-11T04:21:33.989Z,141.90
2022-12-11T04:22:31.119Z,145.60
2022-12-11T04:23:31.102Z,127.60
2022-12-11T04:24:31.050Z,139.40
2022-12-11T04:25:31.035Z,149.90
2022-12-11T04:26:30.998Z,148.70
2022-12-11T04:27:31.027Z,148.00
2022-12-11T04:28:30.934Z,145.30
2022-12-11T04:29:30.913Z,153.70
2022-12-11T04:30:34.103Z,147.80
2022-12-11T04:31:30.892Z,162.10
2022-12-11T04:32:30.831Z,164.30
2022-12-11T04:33:30.817Z,146.30
2022-12-11T04:34:30.896Z,148.30
2022-12-11T04:35:30.777Z,157.50
2022-12-11T04:36:30.707Z,139.60
2022-12-11T04:37:30.658Z,149.80
2022-12-11T04:38:30.622Z,154.70
2022-12-11T04:39:30.583Z,152.30
2022-12-11T04:40:30.815Z,141.40
2022-12-11T04:41:30.587Z,135.60
2022-12-11T04:42:30.501Z,149.10
2022-12-11T04:43:30.509Z,154.80
2022-12-11T04:44:30.434Z,144.60
2022-12-11T04:45:30.442Z,144.40
2022-12-11T04:46:30.379Z,142.50
2022-12-11T04:47:30.340Z,144.90
2022-12-11T04:50:24.142Z,141.30
2022-12-11T04:51:24.216Z,162.20
2022-12-11T04:52:24.158Z,163.60
2022-12-11T04:53:24.122Z,146.90
2022-12-11T04:54:24.069Z,156.40
2022-12-11T04:55:24.071Z,162.50
2022-12-11T04:56:24.005Z,154.50
2022-12-11T04:57:24.137Z,153.70
2022-12-11T04:58:23.946Z,157.30
2022-12-11T04:59:23.939Z,145.90
2022-12-11T05:00:23.897Z,154.30
2022-12-11T05:01:24.016Z,158.90
2022-12-11T05:02:23.986Z,159.70
2022-12-11T05:03:23.990Z,169.30
2022-12-11T05:04:23.794Z,146.60
2022-12-11T05:05:23.781Z,158.20
2022-12-11T05:06:23.730Z,171.10
2022-12-11T05:07:23.732Z,158.90
2022-12-11T05:08:23.710Z,151.80
2022-12-11T05:09:23.796Z,139.00
2022-12-11T05:10:23.630Z,161.80
2022-12-11T05:11:23.618Z,154.00
2022-12-11T05:12:23.561Z,168.20
2022-12-11T05:13:23.564Z,155.60
2022-12-11T05:14:23.649Z,155.70
2022-12-11T05:15:23.509Z,151.50
2022-12-11T05:16:23.516Z,155.60
2022-12-11T05:17:23.415Z,163.10
2022-12-11T05:18:23.364Z,152.30
2022-12-11T05:19:23.365Z,147.30
2022-12-11T05:20:23.312Z,155.30
2022-12-11T05:21:23.351Z,159.30
2022-12-11T05:22:23.281Z,143.40
2022-12-11T05:23:23.263Z,152.10
2022-12-11T05:24:23.214Z,162.20
2022-12-11T05:25:23.496Z,160.20
2022-12-11T05:26:23.167Z,164.90
2022-12-11T05:27:23.296Z,140.00
2022-12-11T05:28:23.117Z,150.80
2022-12-11T05:29:23.117Z,145.70
2022-12-11T05:30:23.085Z,165.80
2022-12-11T05:31:28.035Z,161.10
2022-12-11T05:32:28.042Z,144.90
2022-12-11T05:33:28.003Z,143.10
2022-12-11T05:34:27.975Z,151.90
2022-12-11T05:35:27.946Z,152.00
2022-12-11T05:36:27.939Z,155.30
2022-12-11T05:37:27.888Z,150.30
2022-12-11T05:38:27.918Z,166.00
2022-12-11T05:39:27.841Z,152.50
2022-12-11T05:40:27.832Z,141.70
2022-12-11T05:41:27.770Z,156.40
2022-12-11T05:42:29.192Z,152.70
2022-12-11T05:43:27.698Z,149.50
2022-12-11T05:44:27.836Z,136.60
2022-12-11T05:45:27.642Z,137.90
2022-12-11T05:46:27.827Z,134.40
2022-12-11T05:47:27.606Z,144.30
2022-12-11T05:48:31.481Z,138.60
2022-12-11T05:49:31.827Z,134.90
2022-12-11T05:50:31.507Z,146.80
2022-12-11T05:51:31.490Z,135.80
2022-12-11T05:52:31.442Z,133.10
2022-12-11T05:53:31.400Z,140.10
2022-12-11T05:54:31.350Z,138.90
2022-12-11T05:55:31.501Z,137.00
2022-12-11T05:56:31.325Z,136.60
2022-12-11T05:57:31.243Z,132.70
2022-12-11T05:58:31.279Z,144.00
2022-12-11T05:59:31.180Z,140.30
2022-12-11T06:00:35.839Z,147.70
2022-12-11T06:01:31.280Z,128.30
2022-12-11T06:02:31.215Z,128.10
2022-12-11T06:03:31.045Z,117.80
2022-12-11T06:04:30.992Z,120.10
2022-12-11T06:05:30.983Z,122.60
2022-12-11T06:06:30.915Z,122.70
2022-12-11T06:07:31.072Z,122.70
2022-12-11T06:08:30.879Z,132.10
2022-12-11T06:09:30.909Z,138.10
2022-12-11T06:10:30.804Z,130.00
2022-12-11T06:11:30.783Z,140.10
2022-12-11T06:12:30.743Z,127.80
2022-12-11T06:13:30.892Z,128.10
2022-12-11T06:14:30.699Z,126.00
2022-12-11T06:15:30.691Z,128.00
2022-12-11T06:16:30.703Z,125.40
2022-12-11T06:17:31.108Z,122.80
2022-12-11T06:18:30.576Z,125.80
2022-12-11T06:19:35.102Z,122.80
2022-12-11T06:20:30.526Z,128.20
2022-12-11T06:21:30.570Z,135.40
2022-12-11T06:22:30.476Z,117.80
2022-12-11T06:23:35.320Z,128.70
2022-12-11T06:24:35.566Z,117.60
2022-12-11T06:25:35.384Z,114.60
2022-12-11T06:26:35.348Z,112.80
2022-12-11T06:27:35.322Z,118.00
2022-12-11T06:28:35.310Z,119.30
2022-12-11T06:29:35.270Z,115.20
2022-12-11T06:30:39.130Z,121.20
2022-12-11T06:31:35.264Z,124.60
2022-12-11T06:32:35.194Z,122.00
2022-12-11T06:33:35.140Z,113.40
2022-12-11T06:34:40.029Z,116.10
2022-12-11T06:35:42.048Z,119.00
2022-12-11T06:36:40.041Z,110.90
2022-12-11T06:37:40.297Z,119.90
2022-12-11T06:38:39.972Z,111.90
2022-12-11T06:39:40.413Z,122.80
2022-12-11T06:40:39.927Z,126.80
2022-12-11T06:41:39.913Z,119.90
2022-12-11T06:42:39.864Z,121.90
2022-12-11T06:43:39.835Z,113.00
2022-12-11T06:44:39.779Z,116.60
2022-12-11T06:45:39.788Z,116.40
2022-12-11T06:46:39.734Z,122.40
2022-12-11T06:47:39.756Z,120.10
2022-12-11T06:48:39.695Z,126.90
2022-12-11T06:49:39.657Z,115.30
2022-12-11T06:50:39.635Z,113.90
2022-12-11T06:51:39.612Z,108.90
2022-12-11T06:52:39.574Z,106.40
2022-12-11T06:53:44.459Z,107.20
2022-12-11T06:54:44.510Z,97.10
2022-12-11T06:55:44.467Z,94.50
2022-12-11T06:56:44.464Z,87.10
2022-12-11T06:57:44.436Z,93.80
2022-12-11T06:58:44.412Z,93.10
2022-12-11T06:59:44.479Z,91.50
2022-12-11T07:00:44.416Z,97.30
2022-12-11T07:01:44.313Z,88.10
2022-12-11T07:02:44.310Z,87.70
2022-12-11T07:03:44.258Z,97.00
2022-12-11T07:04:44.273Z,91.20
2022-12-11T07:05:44.208Z,89.40
2022-12-11T07:06:44.230Z,89.60
2022-12-11T07:07:44.176Z,92.50
2022-12-11T07:08:44.124Z,89.30
2022-12-11T07:09:44.096Z,87.10
2022-12-11T07:10:44.043Z,89.70
2022-12-11T07:11:44.302Z,101.00
2022-12-11T07:12:43.982Z,100.80
2022-12-11T07:13:43.927Z,96.40
2022-12-11T07:14:43.921Z,97.80
2022-12-11T07:15:43.879Z,96.20
2022-12-11T07:16:50.088Z,90.10
2022-12-11T07:17:49.817Z,88.80
2022-12-11T07:18:49.797Z,91.40
2022-12-11T07:19:49.771Z,98.50
2022-12-11T07:20:49.706Z,92.60
2022-12-11T07:21:49.682Z,91.30
2022-12-11T07:22:49.957Z,97.10
2022-12-11T07:23:49.698Z,91.20
2022-12-11T07:24:49.648Z,89.30
2022-12-11T07:25:55.497Z,96.10
2022-12-11T07:26:55.570Z,93.40
2022-12-11T07:27:55.574Z,94.90
2022-12-11T07:28:55.523Z,92.20
2022-12-11T07:29:55.487Z,97.80
2022-12-11T07:30:55.467Z,101.10
2022-12-11T07:31:55.573Z,100.00
2022-12-11T07:32:55.494Z,96.40
2022-12-11T07:33:55.392Z,105.50
2022-12-11T07:34:55.372Z,100.80
2022-12-11T07:35:55.322Z,97.80
2022-12-11T07:36:55.323Z,94.80
2022-12-11T07:37:55.258Z,91.60
2022-12-11T07:38:55.246Z,97.50
2022-12-11T07:39:55.196Z,93.30
2022-12-11T07:40:55.472Z,91.70
2022-12-11T07:41:55.156Z,102.80
2022-12-11T07:42:55.147Z,99.10
2022-12-11T07:43:55.509Z,87.90
2022-12-11T07:44:55.093Z,90.00
2022-12-11T07:45:55.140Z,84.10
2022-12-11T07:46:55.027Z,100.00
2022-12-11T07:47:54.958Z,89.40
2022-12-11T07:48:54.944Z,92.30
2022-12-11T07:49:54.883Z,85.90
2022-12-11T07:50:54.895Z,89.50
2022-12-11T07:51:54.849Z,85.60
2022-12-11T07:52:54.819Z,89.40
2022-12-11T07:53:54.790Z,88.10
2022-12-11T07:54:54.780Z,84.70
2022-12-11T07:55:54.719Z,87.00
2022-12-11T07:56:54.714Z,84.40
2022-12-11T07:57:54.805Z,80.30
2022-12-11T07:58:54.658Z,88.00
2022-12-11T07:59:54.636Z,92.00
2022-12-11T08:00:54.645Z,93.20
2022-12-11T08:01:54.655Z,84.90
2022-12-11T08:02:54.621Z,77.30
2022-12-11T08:03:54.570Z,84.10
2022-12-11T08:04:54.525Z,83.40
2022-12-11T08:05:54.462Z,82.50
2022-12-11T08:08:48.345Z,88.60
2022-12-11T08:09:48.374Z,82.20
2022-12-11T08:10:48.351Z,83.50
2022-12-11T08:11:48.309Z,77.00
2022-12-11T08:12:48.299Z,68.00
2022-12-11T08:13:48.391Z,70.90
2022-12-11T08:14:48.251Z,73.40
2022-12-11T08:15:48.355Z,75.40
2022-12-11T08:16:48.306Z,75.70
2022-12-11T08:17:48.171Z,73.60
2022-12-11T08:18:48.177Z,74.00
2022-12-11T08:19:48.136Z,72.60
2022-12-11T08:21:56.123Z,70.70
2022-12-11T08:22:59.044Z,79.80
2022-12-11T08:23:56.047Z,75.90
2022-12-11T08:24:56.034Z,75.20
2022-12-11T08:25:55.986Z,75.50
2022-12-11T08:26:56.382Z,72.10
2022-12-11T08:27:55.998Z,71.80
2022-12-11T08:28:55.913Z,69.60
2022-12-11T08:29:55.885Z,73.00
2022-12-11T08:30:55.906Z,81.10
2022-12-11T08:31:55.818Z,75.80
2022-12-11T08:32:55.822Z,72.70
2022-12-11T08:33:55.820Z,74.70
2022-12-11T08:34:56.053Z,71.30
2022-12-11T08:35:55.740Z,79.50
2022-12-11T08:36:55.703Z,72.40
2022-12-11T08:37:55.659Z,78.60
2022-12-11T08:38:55.657Z,80.80
2022-12-11T08:39:55.865Z,78.50
2022-12-11T08:40:55.580Z,75.70
2022-12-11T08:41:55.591Z,76.80
2022-12-11T08:42:55.567Z,81.30
2022-12-11T08:43:55.576Z,80.90
2022-12-11T08:44:55.510Z,80.30
2022-12-11T08:45:55.678Z,82.50
2022-12-11T08:46:59.351Z,86.40
2022-12-11T08:47:59.464Z,79.90
2022-12-11T08:48:59.405Z,79.40
2022-12-11T08:49:59.370Z,79.20
2022-12-11T08:50:59.593Z,74.30
2022-12-11T08:51:59.331Z,78.00
2022-12-11T08:52:59.291Z,78.10
2022-12-11T08:53:59.276Z,73.80
2022-12-11T08:54:59.234Z,75.40
2022-12-11T08:55:59.364Z,69.80
2022-12-11T08:56:59.306Z,72.20
2022-12-11T08:57:59.150Z,72.10
2022-12-11T08:58:59.138Z,66.90
2022-12-11T08:59:59.112Z,65.70
2022-12-11T09:00:59.186Z,62.10
2022-12-11T09:01:59.041Z,64.40
2022-12-11T09:02:59.140Z,64.00
2022-12-11T09:03:59.001Z,61.20
2022-12-11T09:04:58.933Z,63.40
2022-12-11T09:05:58.910Z,58.80
2022-12-11T09:06:58.985Z,58.80
2022-12-11T09:07:58.912Z,57.60
2022-12-11T09:08:59.048Z,56.60
2022-12-11T09:09:58.769Z,56.50
2022-12-11T09:10:59.118Z,56.90
2022-12-11T09:11:58.718Z,63.10
2022-12-11T09:12:58.670Z,58.70
2022-12-11T09:14:03.519Z,57.80
2022-12-11T09:14:58.622Z,64.60
2022-12-11T09:15:58.633Z,64.60
2022-12-11T09:16:58.553Z,57.80
2022-12-11T09:17:58.581Z,63.40
2022-12-11T09:18:58.492Z,61.70
2022-12-11T09:20:04.359Z,63.50
2022-12-11T09:21:04.429Z,60.80
2022-12-11T09:22:04.393Z,60.70
2022-12-11T09:23:10.266Z,61.90
2022-12-11T09:24:10.374Z,60.10
2022-12-11T09:25:10.756Z,55.20
2022-12-11T09:26:10.270Z,56.10
2022-12-11T09:27:10.272Z,53.60
2022-12-11T09:28:10.368Z,52.80
2022-12-11T09:29:10.214Z,54.90
2022-12-11T09:30:10.192Z,50.70
2022-12-11T09:31:10.331Z,59.20
2022-12-11T09:32:10.151Z,55.90
2022-12-11T09:33:10.090Z,54.20
2022-12-11T09:34:10.045Z,55.80
2022-12-11T09:35:10.500Z,48.80
2022-12-11T09:36:09.996Z,53.30
2022-12-11T09:37:09.961Z,58.50
2022-12-11T09:38:09.937Z,56.70
2022-12-11T09:39:09.920Z,54.20
2022-12-11T09:40:09.895Z,55.70
2022-12-11T09:41:09.831Z,55.00
2022-12-11T09:42:09.825Z,57.50
2022-12-11T09:43:09.794Z,61.80
2022-12-11T09:44:09.753Z,59.50
2022-12-11T09:45:10.087Z,52.20
2022-12-11T09:46:09.809Z,61.30
2022-12-11T09:47:09.656Z,52.00
2022-12-11T09:48:09.643Z,48.10
2022-12-11T09:49:09.717Z,52.20
2022-12-11T09:50:09.581Z,54.90
2022-12-11T09:51:09.509Z,58.00
2022-12-11T09:52:09.512Z,47.60
2022-12-11T09:53:09.455Z,47.70
2022-12-11T09:54:09.451Z,49.50
2022-12-11T09:55:10.196Z,45.50
2022-12-11T09:56:09.400Z,45.30
2022-12-11T09:57:09.337Z,51.00
2022-12-11T09:58:09.311Z,47.40
2022-12-11T09:59:09.282Z,53.20
2022-12-11T10:00:14.411Z,47.90
2022-12-11T10:01:14.243Z,49.90
2022-12-11T10:02:14.185Z,47.30
2022-12-11T10:03:14.155Z,45.10
2022-12-11T10:04:14.088Z,46.40
2022-12-11T10:05:14.225Z,49.60
2022-12-11T10:06:14.036Z,45.20
2022-12-11T10:07:14.005Z,42.20
2022-12-11T10:08:14.029Z,42.70
2022-12-11T10:09:13.933Z,43.70
2022-12-11T10:10:13.866Z,45.80
2022-12-11T10:11:14.136Z,44.20
2022-12-11T10:12:13.822Z,46.50
2022-12-11T10:13:13.810Z,40.20
2022-12-11T10:14:13.736Z,47.00
2022-12-11T10:15:14.191Z,44.10
2022-12-11T10:16:13.770Z,39.40
2022-12-11T10:17:13.665Z,43.20
2022-12-11T10:18:13.907Z,43.60
2022-12-11T10:19:18.494Z,40.20
2022-12-11T10:20:22.464Z,43.90
2022-12-11T10:21:22.679Z,40.90
2022-12-11T10:22:22.525Z,39.00
2022-12-11T10:23:22.494Z,42.80
2022-12-11T10:24:42.191Z,43.30
2022-12-11T10:25:22.411Z,41.70
2022-12-11T10:26:22.383Z,39.70
2022-12-11T10:27:22.350Z,42.40
2022-12-11T10:28:22.306Z,40.10
2022-12-11T10:29:22.556Z,41.60
2022-12-11T10:30:22.254Z,42.60
2022-12-11T10:31:22.262Z,44.90
2022-12-11T10:32:22.315Z,44.40
2022-12-11T10:33:22.156Z,47.10
2022-12-11T10:34:22.108Z,43.40
2022-12-11T10:35:22.229Z,46.50
2022-12-11T10:36:22.060Z,44.40
2022-12-11T10:37:22.055Z,45.30
2022-12-11T10:38:22.400Z,47.30
2022-12-11T10:39:21.984Z,48.00
2022-12-11T10:40:21.925Z,45.50
2022-12-11T10:41:21.984Z,47.60
2022-12-11T10:42:21.896Z,46.90
2022-12-11T10:43:21.994Z,44.50
2022-12-11T10:44:21.817Z,43.30
2022-12-11T10:45:21.823Z,45.60
2022-12-11T10:46:21.824Z,43.50
2022-12-11T10:47:21.766Z,41.80
2022-12-11T10:48:21.716Z,49.70
2022-12-11T10:49:21.698Z,47.10
2022-12-11T10:50:21.631Z,46.50
2022-12-11T10:51:21.618Z,47.30
2022-12-11T10:52:21.582Z,48.10
2022-12-11T10:53:21.598Z,44.30
2022-12-11T10:54:21.558Z,42.70
2022-12-11T10:55:21.520Z,42.50
2022-12-11T10:56:21.473Z,46.70
2022-12-11T10:57:21.477Z,44.80
2022-12-11T10:58:21.436Z,45.20
2022-12-11T10:59:24.121Z,44.10
2022-12-11T11:00:21.370Z,45.50
2022-12-11T11:01:21.389Z,45.70
2022-12-11T11:02:21.374Z,46.90
2022-12-11T11:03:25.197Z,45.30
2022-12-11T11:04:25.297Z,46.80
2022-12-11T11:05:25.206Z,49.70
2022-12-11T11:06:25.226Z,46.00
2022-12-11T11:07:25.172Z,46.00
2022-12-11T11:08:25.373Z,41.70
2022-12-11T11:09:25.096Z,46.60
2022-12-11T11:10:25.098Z,45.30
2022-12-11T11:11:25.056Z,47.00
2022-12-11T11:12:30.951Z,40.00
2022-12-11T11:13:35.954Z,41.80
2022-12-11T11:14:36.025Z,44.00
2022-12-11T11:15:35.934Z,41.90
2022-12-11T11:16:35.914Z,43.70
2022-12-11T11:17:40.013Z,39.10
2022-12-11T11:18:35.849Z,41.80
2022-12-11T11:19:35.797Z,40.40
2022-12-11T11:20:35.781Z,39.10
2022-12-11T11:21:35.872Z,40.20
2022-12-11T11:22:39.636Z,41.40
2022-12-11T11:23:44.294Z,39.70
2022-12-11T11:24:39.771Z,42.00
2022-12-11T11:25:39.625Z,39.30
2022-12-11T11:27:11.758Z,43.10
2022-12-11T11:27:39.560Z,41.20
2022-12-11T11:28:39.489Z,41.40
2022-12-11T11:29:39.489Z,48.00
2022-12-11T11:30:39.449Z,45.70
2022-12-11T11:31:39.482Z,56.50
2022-12-11T11:32:39.653Z,56.90
2022-12-11T11:33:39.388Z,55.00
2022-12-11T11:34:39.339Z,46.00
2022-12-11T11:35:45.501Z,41.30
2022-12-11T11:36:39.315Z,38.60
2022-12-11T11:37:39.287Z,58.70
2022-12-11T11:38:39.528Z,64.90
2022-12-11T11:39:39.239Z,47.60
2022-12-11T11:40:39.186Z,43.30
2022-12-11T11:41:39.177Z,39.50
2022-12-11T11:42:39.127Z,43.90
2022-12-11T11:43:39.481Z,41.40
2022-12-11T11:44:39.093Z,41.30
2022-12-11T11:45:39.065Z,52.40
2022-12-11T11:46:39.109Z,57.80
2022-12-11T11:47:39.000Z,46.10
2022-12-11T11:48:38.961Z,40.80
2022-12-11T11:49:38.968Z,39.30
2022-12-11T11:50:39.212Z,40.60
2022-12-11T11:51:38.907Z,40.60
2022-12-11T11:52:38.863Z,44.60
2022-12-11T11:53:38.858Z,42.10
2022-12-11T11:54:38.824Z,39.10
2022-12-11T11:55:38.811Z,40.40
2022-12-11T11:56:38.940Z,39.20
2022-12-11T11:57:42.928Z,43.00
2022-12-11T11:58:42.722Z,43.00
2022-12-11T11:59:42.694Z,38.30
2022-12-11T12:00:42.675Z,38.30
2022-12-11T12:01:42.911Z,41.20
2022-12-11T12:02:42.668Z,37.20
2022-12-11T12:03:42.545Z,39.30
2022-12-11T12:04:42.521Z,39.30
2022-12-11T12:05:42.500Z,36.90
2022-12-11T12:06:47.411Z,37.10
2022-12-11T12:07:42.513Z,37.10
2022-12-11T12:08:42.400Z,36.70
2022-12-11T12:09:42.420Z,38.20
2022-12-11T12:10:42.317Z,37.30
2022-12-11T12:11:42.246Z,37.70
2022-12-11T12:12:42.228Z,43.50
2022-12-11T12:14:52.672Z,38.90
2022-12-11T12:15:47.135Z,41.70
2022-12-11T12:16:53.359Z,36.10
2022-12-11T12:17:50.531Z,39.80
2022-12-11T12:18:47.324Z,38.70
2022-12-11T12:19:47.014Z,36.60
2022-12-11T12:20:47.095Z,41.50
2022-12-11T12:21:46.951Z,37.20
2022-12-11T12:22:46.909Z,42.70
2022-12-11T12:23:46.904Z,36.20
2022-12-11T12:24:46.853Z,37.20
2022-12-11T12:25:46.840Z,42.20
2022-12-11T12:26:47.423Z,40.90
2022-12-11T12:27:52.746Z,38.30
2022-12-11T12:28:46.731Z,39.20
2022-12-11T12:29:47.009Z,36.60
2022-12-11T12:30:46.666Z,40.20
2022-12-11T12:33:40.690Z,37.60
2022-12-11T12:34:40.558Z,40.70
2022-12-11T12:35:40.558Z,45.20
2022-12-11T12:36:40.521Z,40.50
2022-12-11T12:37:40.491Z,43.50
2022-12-11T12:38:40.453Z,42.40
2022-12-11T12:39:40.440Z,41.80
2022-12-11T12:40:40.434Z,44.60
2022-12-11T12:41:40.331Z,40.60
2022-12-11T12:42:40.293Z,42.50
2022-12-11T12:43:40.351Z,42.50
2022-12-11T12:44:40.223Z,42.00
2022-12-11T12:45:40.455Z,46.10
2022-12-11T12:46:40.187Z,41.60
2022-12-11T12:47:48.869Z,44.80
2022-12-11T12:48:45.125Z,42.90
2022-12-11T12:49:45.065Z,44.10
2022-12-11T12:50:45.298Z,50.00
2022-12-11T12:51:45.047Z,43.00
2022-12-11T12:52:45.035Z,46.70
2022-12-11T12:53:44.993Z,44.00